1AK0 weather

Craig Cg Heliport
Craig, Alaska, United States

Public forecast

Using degrees Fahrenheit for public forecast. Weather courtesy of forecast.io.

Closest aviation weather report (METAR) to Craig Cg Heliport

Closest report is Klawock Airport, 6.7 nm (12.4 km) NNE. Retrieved 2019/11/19 19:21 UTC (8 minutes ago):

PAKW 191921Z AUTO 00000KT 10SM FEW002 02/01 A3021 RMK T00170011 TSNO VIA AUTODIAL

Closest aviation forecast (TAF) to Craig Cg Heliport

Closest forecast is Klawock Airport, 6.7 nm (12.4 km) NNE. Retrieved 2019/11/19 18:40 UTC (49 minutes ago):

TAF PAKW 191738Z 1918/2018 VRB03KT 3SM BR OVC001 TEMPO 1918/1920 1SM BR FM192000 VRB03KT P6SM SCT010 OVC200 FM200300 VRB03KT 6SM -RA BR SCT003 OVC020 FM200900 14011KT 4SM -RA BR OVC015 AMD LTD TO CLD VIS AND WIND